Time;durP1;ratioP1;P1;durP2;ratioP2;P2;SDS_P1;SDS_P2;PMS_P1;PMS_P2;Temp;Humidity;BMP_temperature;BMP_pressure;BME280_temperature;BME280_humidity;BME280_pressure;Samples;Min_cycle;Max_cycle;Signal;HPM_P1;HPM_P2
2023/04/16 00:01:48;;;;;;;14.38;11.35;;;;;;;;;;5035788;28;20041;-60
2023/04/16 00:04:13;;;;;;;15.35;11.35;;;;;;;;;;5035633;28;20057;-60
2023/04/16 00:06:39;;;;;;;14.85;11.90;;;;;;;;;;5035484;28;20017;-59
2023/04/16 00:09:04;;;;;;;17.35;12.68;;;;;;;;;;5035072;28;20048;-60
2023/04/16 00:11:30;;;;;;;15.25;12.00;;;;;;;;;;5035632;28;20033;-59
2023/04/16 00:13:55;;;;;;;16.55;12.68;;;;;;;;;;5017428;28;20060;-59
2023/04/16 00:16:20;;;;;;;17.88;13.15;;;;;;;;;;5017642;28;20069;-53
2023/04/16 00:18:46;;;;;;;27.77;15.98;;;;;;;;;;5035151;28;20037;-54
2023/04/16 00:21:11;;;;;;;27.58;16.05;;;;;;;;;;5034901;28;20443;-53
2023/04/16 00:23:36;;;;;;;23.80;15.57;;;;;;;;;;5035150;28;20500;-54
2023/04/16 00:26:04;;;;;;;17.88;13.13;;;;;;;;;;5034952;28;20097;-53
2023/04/16 00:28:29;;;;;;;18.65;12.90;;;;;;;;;;5035065;28;20055;-53
2023/04/16 00:30:55;;;;;;;19.40;13.65;;;;;;;;;;5016934;28;20471;-54
2023/04/16 00:33:20;;;;;;;20.73;14.35;;;;;;;;;;5034959;28;20105;-53
2023/04/16 00:35:46;;;;;;;22.05;13.65;;;;;;;;;;5017002;28;20100;-53
2023/04/16 00:38:11;;;;;;;23.30;13.80;;;;;;;;;;5033287;28;20427;-53
2023/04/16 00:40:37;;;;;;;22.15;13.80;;;;;;;;;;5033881;28;20108;-53
2023/04/16 00:43:02;;;;;;;18.40;14.38;;;;;;;;;;5034515;28;20029;-53
2023/04/16 00:45:27;;;;;;;21.33;14.60;;;;;;;;;;5034472;28;20028;-53
2023/04/16 00:47:53;;;;;;;24.55;15.43;;;;;;;;;;5034405;28;20100;-53
2023/04/16 00:50:18;;;;;;;24.00;15.63;;;;;;;;;;5033103;28;20041;-53
2023/04/16 00:52:45;;;;;;;33.00;17.95;;;;;;;;;;5034427;28;20087;-53
2023/04/16 00:55:12;;;;;;;29.58;16.95;;;;;;;;;;5034328;28;20129;-53
2023/04/16 00:57:38;;;;;;;35.45;19.63;;;;;;;;;;5016416;28;20021;-53
2023/04/16 01:00:03;;;;;;;42.20;22.33;;;;;;;;;;5034444;28;20393;-53
2023/04/16 01:02:29;;;;;;;29.00;18.95;;;;;;;;;;5035050;28;20030;-53
2023/04/16 01:04:54;;;;;;;29.83;19.15;;;;;;;;;;5017521;28;20379;-53
2023/04/16 01:07:19;;;;;;;30.75;19.73;;;;;;;;;;5012882;28;20499;-53
2023/04/16 01:09:45;;;;;;;27.63;18.42;;;;;;;;;;5013046;28;20120;-53
2023/04/16 01:12:10;;;;;;;25.77;17.83;;;;;;;;;;5013038;28;20120;-53
2023/04/16 01:14:36;;;;;;;25.42;17.67;;;;;;;;;;5014306;28;20029;-53
2023/04/16 01:17:02;;;;;;;22.83;16.08;;;;;;;;;;5014779;28;20030;-53
2023/04/16 01:19:29;;;;;;;27.25;17.83;;;;;;;;;;5013230;28;20038;-53
2023/04/16 01:21:55;;;;;;;20.23;15.98;;;;;;;;;;5014135;28;20030;-53
2023/04/16 01:24:21;;;;;;;23.83;17.33;;;;;;;;;;5014534;28;20058;-53
2023/04/16 01:26:48;;;;;;;22.48;16.35;;;;;;;;;;5014076;28;20460;-53
2023/04/16 01:29:13;;;;;;;21.67;17.17;;;;;;;;;;5014374;28;20026;-53
2023/04/16 01:31:39;;;;;;;22.30;15.60;;;;;;;;;;5012519;28;20044;-53
2023/04/16 01:34:24;;;;;;;22.20;16.42;;;;;;;;;;5013657;28;20037;-53
2023/04/16 01:36:50;;;;;;;26.15;17.00;;;;;;;;;;5012659;28;20044;-53
2023/04/16 01:39:18;;;;;;;23.60;16.45;;;;;;;;;;5013994;28;20034;-53
2023/04/16 01:41:43;;;;;;;30.73;19.60;;;;;;;;;;5014191;28;20380;-54
2023/04/16 01:44:09;;;;;;;31.13;20.25;;;;;;;;;;5012662;28;20036;-54
2023/04/16 01:46:34;;;;;;;30.70;19.75;;;;;;;;;;5013919;28;20034;-54
2023/04/16 01:49:03;;;;;;;29.95;19.42;;;;;;;;;;5013283;28;20084;-54
2023/04/16 01:51:28;;;;;;;29.38;19.60;;;;;;;;;;5029023;28;20076;-54
2023/04/16 01:53:54;;;;;;;26.08;18.15;;;;;;;;;;5014038;28;20022;-54
2023/04/16 01:56:20;;;;;;;27.15;18.52;;;;;;;;;;5012540;28;20050;-54
2023/04/16 01:58:46;;;;;;;24.85;17.35;;;;;;;;;;4996119;28;20034;-54
2023/04/16 02:01:12;;;;;;;24.73;17.35;;;;;;;;;;5028895;28;20025;-53
2023/04/16 02:03:38;;;;;;;21.88;16.95;;;;;;;;;;5012475;28;20400;-54
2023/04/16 02:06:04;;;;;;;20.33;15.73;;;;;;;;;;5028864;28;20022;-54
2023/04/16 02:08:29;;;;;;;22.77;15.68;;;;;;;;;;5026761;28;20510;-54
2023/04/16 02:10:55;;;;;;;22.90;16.48;;;;;;;;;;5033362;28;20037;-54
2023/04/16 02:13:22;;;;;;;22.35;16.02;;;;;;;;;;5032895;28;20072;-54
2023/04/16 02:15:48;;;;;;;22.08;16.55;;;;;;;;;;5016217;28;20034;-54
2023/04/16 02:18:17;;;;;;;26.08;16.55;;;;;;;;;;5015816;28;20041;-54
2023/04/16 02:20:44;;;;;;;23.48;16.88;;;;;;;;;;5015583;28;20029;-53
2023/04/16 02:23:10;;;;;;;24.20;16.85;;;;;;;;;;5031985;28;20088;-54
2023/04/16 02:25:43;;;;;;;23.98;16.02;;;;;;;;;;5015561;28;20022;-54
2023/04/16 02:28:11;;;;;;;21.30;16.08;;;;;;;;;;5031951;28;20037;-53
2023/04/16 02:30:39;;;;;;;26.20;16.88;;;;;;;;;;5032552;28;20106;-54
2023/04/16 02:33:06;;;;;;;23.08;16.05;;;;;;;;;;5032191;28;20534;-53
2023/04/16 02:35:32;;;;;;;23.77;16.70;;;;;;;;;;5031900;28;20064;-53
2023/04/16 02:37:58;;;;;;;22.45;15.55;;;;;;;;;;5031835;28;20057;-53
2023/04/16 02:40:23;;;;;;;24.98;17.08;;;;;;;;;;5015374;28;20486;-53
2023/04/16 02:42:49;;;;;;;25.42;16.80;;;;;;;;;;5033113;28;20038;-54
2023/04/16 02:45:14;;;;;;;23.55;16.40;;;;;;;;;;5015438;28;20035;-54
2023/04/16 02:47:39;;;;;;;23.88;16.35;;;;;;;;;;5033338;28;20026;-54
2023/04/16 02:50:05;;;;;;;23.33;16.17;;;;;;;;;;5034554;28;20364;-54
2023/04/16 02:52:31;;;;;;;22.45;16.25;;;;;;;;;;5036929;28;20018;-54
2023/04/16 02:54:57;;;;;;;25.20;16.90;;;;;;;;;;5018823;28;20045;-53
2023/04/16 02:57:22;;;;;;;23.77;16.73;;;;;;;;;;5037032;28;20464;-54
2023/04/16 02:59:47;;;;;;;24.30;17.33;;;;;;;;;;5036722;28;20029;-54
2023/04/16 03:02:13;;;;;;;22.73;16.23;;;;;;;;;;5018716;28;20472;-54
2023/04/16 03:04:38;;;;;;;25.33;16.70;;;;;;;;;;5035127;28;20034;-54
2023/04/16 03:07:04;;;;;;;20.38;15.52;;;;;;;;;;5018989;28;20025;-54
2023/04/16 03:09:29;;;;;;;20.70;16.23;;;;;;;;;;5036437;28;20041;-54
2023/04/16 03:11:55;;;;;;;20.75;15.45;;;;;;;;;;5036526;28;20033;-54
2023/04/16 03:14:20;;;;;;;19.85;15.15;;;;;;;;;;5036454;28;20037;-53
2023/04/16 03:16:46;;;;;;;19.38;14.70;;;;;;;;;;5036119;28;20041;-54
2023/04/16 03:19:11;;;;;;;19.20;14.32;;;;;;;;;;5036264;28;20036;-53
2023/04/16 03:21:36;;;;;;;22.65;15.05;;;;;;;;;;5018718;28;20021;-53
2023/04/16 03:24:02;;;;;;;17.73;13.82;;;;;;;;;;5036069;28;20021;-53
2023/04/16 03:26:27;;;;;;;18.73;14.80;;;;;;;;;;5036013;28;20032;-53
2023/04/16 03:28:53;;;;;;;19.48;14.75;;;;;;;;;;5018200;28;20120;-53
2023/04/16 03:31:19;;;;;;;18.17;13.18;;;;;;;;;;5018450;28;20137;-54
2023/04/16 03:33:44;;;;;;;13.43;10.20;;;;;;;;;;5035889;28;20032;-53
2023/04/16 03:36:10;;;;;;;12.30;9.82;;;;;;;;;;5034563;28;20040;-53
2023/04/16 03:38:35;;;;;;;15.77;12.48;;;;;;;;;;5036545;28;20030;-54
2023/04/16 03:41:00;;;;;;;18.52;13.77;;;;;;;;;;5036039;28;20026;-54
2023/04/16 03:43:29;;;;;;;17.77;13.77;;;;;;;;;;5018771;28;20025;-54
2023/04/16 03:45:54;;;;;;;16.10;12.88;;;;;;;;;;5018498;28;20067;-54
2023/04/16 03:48:22;;;;;;;14.27;11.55;;;;;;;;;;5017817;28;20084;-53
2023/04/16 03:50:47;;;;;;;15.48;11.98;;;;;;;;;;5035548;28;20515;-53
2023/04/16 03:53:14;;;;;;;17.17;12.95;;;;;;;;;;5034250;28;20029;-54
2023/04/16 03:55:40;;;;;;;15.05;12.40;;;;;;;;;;5017713;28;20072;-53
2023/04/16 03:58:07;;;;;;;15.63;12.50;;;;;;;;;;5034079;28;20036;-54
2023/04/16 04:00:32;;;;;;;16.27;12.20;;;;;;;;;;5033647;28;20033;-53
2023/04/16 04:03:05;;;;;;;17.33;12.55;;;;;;;;;;5017526;28;20029;-54
2023/04/16 04:05:34;;;;;;;16.33;12.63;;;;;;;;;;5017499;28;20029;-53
2023/04/16 04:07:59;;;;;;;14.68;13.13;;;;;;;;;;5035482;28;20095;-54
2023/04/16 04:10:26;;;;;;;16.38;12.38;;;;;;;;;;5017409;28;20041;-54
2023/04/16 04:12:52;;;;;;;16.65;13.05;;;;;;;;;;5001070;28;20029;-54
2023/04/16 04:15:17;;;;;;;16.13;13.00;;;;;;;;;;5017319;28;20400;-53
2023/04/16 04:17:43;;;;;;;17.85;12.75;;;;;;;;;;5034913;28;20483;-54
2023/04/16 04:20:08;;;;;;;15.02;11.65;;;;;;;;;;5017256;28;20033;-54
2023/04/16 04:22:35;;;;;;;19.27;13.27;;;;;;;;;;5033687;28;20059;-53
2023/04/16 04:25:00;;;;;;;18.05;14.18;;;;;;;;;;5017541;28;20068;-53
2023/04/16 04:27:28;;;;;;;17.25;13.38;;;;;;;;;;5017341;28;20030;-54
2023/04/16 04:29:53;;;;;;;18.35;12.48;;;;;;;;;;5017019;28;20036;-53
2023/04/16 04:32:20;;;;;;;17.40;12.63;;;;;;;;;;5017277;28;20024;-54
2023/04/16 04:34:46;;;;;;;16.75;12.00;;;;;;;;;;5017230;28;20068;-53
2023/04/16 04:37:12;;;;;;;15.07;12.23;;;;;;;;;;5033342;28;20388;-53
2023/04/16 04:39:37;;;;;;;17.42;12.82;;;;;;;;;;5033274;28;20120;-53
2023/04/16 04:42:03;;;;;;;18.05;13.20;;;;;;;;;;5016797;28;20452;-53
2023/04/16 04:44:28;;;;;;;18.67;12.95;;;;;;;;;;5016818;28;20053;-60
2023/04/16 04:46:53;;;;;;;18.48;13.55;;;;;;;;;;5057178;23;20429;-53
2023/04/16 04:49:19;;;;;;;20.27;13.52;;;;;;;;;;5072905;28;20040;-60
2023/04/16 04:51:47;;;;;;;18.10;13.30;;;;;;;;;;5056163;28;20032;-61
2023/04/16 04:54:13;;;;;;;22.35;14.25;;;;;;;;;;5056239;28;20025;-61
2023/04/16 04:56:44;;;;;;;21.25;14.45;;;;;;;;;;5074456;28;20020;-61
2023/04/16 04:59:10;;;;;;;18.20;13.07;;;;;;;;;;5056131;28;20084;-62
2023/04/16 05:01:36;;;;;;;17.05;12.73;;;;;;;;;;5056193;28;20107;-61
2023/04/16 05:04:02;;;;;;;18.08;12.65;;;;;;;;;;5074234;28;20458;-61
2023/04/16 05:06:27;;;;;;;19.25;13.50;;;;;;;;;;5074037;28;20077;-61
2023/04/16 05:08:52;;;;;;;23.20;15.40;;;;;;;;;;5074185;28;20150;-61
2023/04/16 05:11:18;;;;;;;22.88;15.23;;;;;;;;;;5074530;28;20107;-61
2023/04/16 05:13:43;;;;;;;22.98;15.00;;;;;;;;;;5073527;28;20386;-61
2023/04/16 05:16:08;;;;;;;24.25;15.23;;;;;;;;;;5074030;28;20037;-62
2023/04/16 05:18:34;;;;;;;24.02;15.02;;;;;;;;;;5074373;28;20029;-60
2023/04/16 05:20:59;;;;;;;24.27;15.93;;;;;;;;;;5056768;28;20414;-60
2023/04/16 05:23:24;;;;;;;27.08;17.60;;;;;;;;;;5073918;28;20021;-53
2023/04/16 05:25:50;;;;;;;25.23;16.88;;;;;;;;;;5073848;28;20060;-53
2023/04/16 05:28:15;;;;;;;22.85;15.85;;;;;;;;;;5071124;28;20029;-53
2023/04/16 05:30:40;;;;;;;23.05;15.13;;;;;;;;;;5062327;28;20100;-59
2023/04/16 05:33:06;;;;;;;23.90;16.08;;;;;;;;;;5065105;28;20032;-60
2023/04/16 05:35:31;;;;;;;27.38;17.23;;;;;;;;;;5061273;28;20092;-53
2023/04/16 05:37:56;;;;;;;25.92;16.77;;;;;;;;;;5061420;28;20044;-65
2023/04/16 05:40:23;;;;;;;23.55;15.68;;;;;;;;;;5055641;28;20051;-53
2023/04/16 05:42:48;;;;;;;24.73;15.90;;;;;;;;;;5052912;28;20029;-52
2023/04/16 05:45:14;;;;;;;27.55;16.35;;;;;;;;;;5054340;28;20063;-60
2023/04/16 05:47:39;;;;;;;23.55;15.30;;;;;;;;;;5073166;28;20432;-60
2023/04/16 05:50:05;;;;;;;23.70;15.63;;;;;;;;;;5072722;28;20036;-60
2023/04/16 05:52:30;;;;;;;25.42;16.65;;;;;;;;;;5072341;28;20038;-60
2023/04/16 05:54:56;;;;;;;24.02;15.50;;;;;;;;;;5072605;28;20024;-60
2023/04/16 05:57:22;;;;;;;27.67;17.95;;;;;;;;;;5072253;28;20025;-62
2023/04/16 05:59:47;;;;;;;29.38;18.20;;;;;;;;;;5072217;28;20360;-64
2023/04/16 06:02:13;;;;;;;28.58;16.83;;;;;;;;;;5072198;28;20031;-60
2023/04/16 06:04:38;;;;;;;28.00;17.45;;;;;;;;;;5072513;28;20032;-60
2023/04/16 06:07:03;;;;;;;29.45;17.27;;;;;;;;;;5073079;28;20028;-60
2023/04/16 06:09:29;;;;;;;29.90;18.00;;;;;;;;;;5072563;28;20524;-60
2023/04/16 06:11:55;;;;;;;28.08;16.95;;;;;;;;;;5072370;28;20064;-60
2023/04/16 06:14:20;;;;;;;25.52;14.55;;;;;;;;;;5054244;28;20017;-52
2023/04/16 06:16:46;;;;;;;22.48;13.18;;;;;;;;;;5072485;28;20024;-52
2023/04/16 06:19:11;;;;;;;24.45;14.10;;;;;;;;;;5051241;28;20021;-53
2023/04/16 06:21:36;;;;;;;25.00;14.65;;;;;;;;;;5057524;28;20082;-52
2023/04/16 06:24:02;;;;;;;30.90;18.27;;;;;;;;;;5054456;28;20024;-53
2023/04/16 06:26:27;;;;;;;34.05;19.17;;;;;;;;;;5066149;28;20025;-52
2023/04/16 06:28:53;;;;;;;33.30;18.63;;;;;;;;;;5065107;28;20540;-52
2023/04/16 06:31:18;;;;;;;33.70;19.73;;;;;;;;;;5057820;28;20085;-52
2023/04/16 06:33:43;;;;;;;27.98;16.85;;;;;;;;;;5073985;28;20024;-52
2023/04/16 06:36:10;;;;;;;30.17;16.20;;;;;;;;;;5076906;28;20115;-52
2023/04/16 06:38:35;;;;;;;38.33;21.27;;;;;;;;;;5077006;28;20360;-52
2023/04/16 06:41:01;;;;;;;33.15;18.52;;;;;;;;;;5077153;28;20019;-52
2023/04/16 06:43:26;;;;;;;36.22;19.73;;;;;;;;;;5077112;28;20033;-52
2023/04/16 06:45:51;;;;;;;31.83;17.77;;;;;;;;;;5056168;28;20412;-53
2023/04/16 06:48:17;;;;;;;38.97;22.02;;;;;;;;;;5056046;28;20526;-53
2023/04/16 06:50:42;;;;;;;40.45;22.88;;;;;;;;;;5056434;28;20033;-54
2023/04/16 06:53:08;;;;;;;31.73;18.08;;;;;;;;;;5039160;28;20068;-54
2023/04/16 06:55:33;;;;;;;37.83;20.40;;;;;;;;;;5056704;28;20366;-53
2023/04/16 06:57:58;;;;;;;43.05;21.63;;;;;;;;;;5056336;28;20473;-60
2023/04/16 07:00:24;;;;;;;38.42;21.85;;;;;;;;;;5065155;28;20058;-60
2023/04/16 07:02:49;;;;;;;38.47;20.27;;;;;;;;;;5066621;28;20088;-54
2023/04/16 07:05:15;;;;;;;39.03;21.58;;;;;;;;;;5071454;28;20020;-60
2023/04/16 07:07:40;;;;;;;39.83;22.75;;;;;;;;;;5062310;28;20028;-59
2023/04/16 07:10:06;;;;;;;39.20;22.42;;;;;;;;;;5056814;28;20025;-61
2023/04/16 07:12:31;;;;;;;37.17;20.92;;;;;;;;;;5056680;28;20071;-61
2023/04/16 07:14:57;;;;;;;41.60;22.67;;;;;;;;;;5056451;28;20025;-60
2023/04/16 07:17:22;;;;;;;40.97;23.05;;;;;;;;;;5056368;28;20050;-60
2023/04/16 07:19:47;;;;;;;36.13;20.85;;;;;;;;;;5055987;28;20130;-60
2023/04/16 07:22:13;;;;;;;29.27;16.13;;;;;;;;;;5056261;28;20132;-60
2023/04/16 07:24:38;;;;;;;34.90;19.08;;;;;;;;;;5055448;28;20033;-60
2023/04/16 07:27:03;;;;;;;29.90;16.95;;;;;;;;;;5054707;28;20515;-60
2023/04/16 07:29:29;;;;;;;29.55;16.83;;;;;;;;;;5053824;28;20021;-60
2023/04/16 07:31:54;;;;;;;29.50;17.75;;;;;;;;;;5053517;28;20031;-60
2023/04/16 07:34:19;;;;;;;27.10;16.40;;;;;;;;;;5053874;28;20033;-60
2023/04/16 07:36:45;;;;;;;32.13;19.80;;;;;;;;;;5052298;28;20060;-60
2023/04/16 07:39:10;;;;;;;39.78;21.70;;;;;;;;;;5052701;28;20470;-60
2023/04/16 07:41:38;;;;;;;40.65;21.27;;;;;;;;;;5052944;28;20098;-60
2023/04/16 07:44:04;;;;;;;36.35;20.52;;;;;;;;;;5054138;28;20033;-60
2023/04/16 07:46:29;;;;;;;29.55;16.77;;;;;;;;;;5053694;28;20029;-60
2023/04/16 07:48:54;;;;;;;41.05;21.60;;;;;;;;;;5053400;28;20112;-60
2023/04/16 07:51:20;;;;;;;37.55;19.63;;;;;;;;;;5053364;28;20040;-60
2023/04/16 07:53:45;;;;;;;40.05;19.67;;;;;;;;;;5053229;28;20047;-58
2023/04/16 07:56:11;;;;;;;38.42;20.33;;;;;;;;;;5053177;28;20453;-58
2023/04/16 07:58:36;;;;;;;46.95;24.30;;;;;;;;;;5053165;28;20041;-58
2023/04/16 08:01:01;;;;;;;47.40;24.13;;;;;;;;;;5053322;28;20025;-60
2023/04/16 08:03:27;;;;;;;47.72;23.92;;;;;;;;;;5054415;28;20037;-60
2023/04/16 08:05:52;;;;;;;49.63;25.73;;;;;;;;;;5055418;28;20104;-60
2023/04/16 08:08:19;;;;;;;49.05;26.08;;;;;;;;;;5054898;28;20029;-58
2023/04/16 08:10:44;;;;;;;44.97;24.40;;;;;;;;;;5055427;28;20524;-58
2023/04/16 08:13:10;;;;;;;38.85;20.80;;;;;;;;;;5054995;28;20119;-60
2023/04/16 08:15:35;;;;;;;38.83;20.20;;;;;;;;;;5054995;28;20103;-58
2023/04/16 08:18:00;;;;;;;46.75;25.58;;;;;;;;;;5053171;28;20464;-59
2023/04/16 08:20:26;;;;;;;52.90;26.35;;;;;;;;;;5053696;28;20191;-60
2023/04/16 08:22:52;;;;;;;54.05;26.65;;;;;;;;;;5054716;28;20033;-60
2023/04/16 08:25:19;;;;;;;52.75;26.00;;;;;;;;;;5054773;28;20032;-58
2023/04/16 08:27:44;;;;;;;58.85;30.48;;;;;;;;;;5054724;28;20027;-58
2023/04/16 08:30:09;;;;;;;54.22;27.65;;;;;;;;;;5055277;28;20108;-58
2023/04/16 08:32:35;;;;;;;45.03;22.77;;;;;;;;;;5054524;28;20418;-58
2023/04/16 08:35:00;;;;;;;46.92;24.75;;;;;;;;;;5054883;28;20083;-60
2023/04/16 08:37:25;;;;;;;38.83;19.80;;;;;;;;;;5054389;28;20036;-60
2023/04/16 08:39:50;;;;;;;48.97;26.10;;;;;;;;;;5054301;28;20133;-60
2023/04/16 08:42:32;;;;;;;50.25;25.58;;;;;;;;;;5054520;28;20028;-58
2023/04/16 08:45:08;;;;;;;43.63;22.35;;;;;;;;;;5054715;28;20029;-58
2023/04/16 08:47:34;;;;;;;41.95;24.20;;;;;;;;;;5052873;28;20041;-58
2023/04/16 08:50:01;;;;;;;38.15;19.75;;;;;;;;;;5054623;28;20111;-58
2023/04/16 08:52:29;;;;;;;37.38;18.77;;;;;;;;;;5054341;28;20029;-58
2023/04/16 08:54:55;;;;;;;39.65;20.42;;;;;;;;;;5054260;28;20037;-59
2023/04/16 08:57:21;;;;;;;40.00;22.02;;;;;;;;;;5054773;28;20083;-58
2023/04/16 08:59:47;;;;;;;39.63;22.88;;;;;;;;;;5054170;28;20371;-60
2023/04/16 09:02:13;;;;;;;36.42;20.58;;;;;;;;;;5054159;28;20387;-58
2023/04/16 09:04:40;;;;;;;35.60;18.77;;;;;;;;;;5054418;28;20112;-58
2023/04/16 09:07:06;;;;;;;29.88;16.75;;;;;;;;;;5036238;28;20033;-60
2023/04/16 09:09:32;;;;;;;32.33;17.88;;;;;;;;;;5052894;28;20029;-58
2023/04/16 09:11:57;;;;;;;30.38;16.55;;;;;;;;;;5054583;28;20426;-58
2023/04/16 09:14:23;;;;;;;32.25;19.10;;;;;;;;;;5052715;28;20056;-58
2023/04/16 09:19:40;;;;;;;27.10;15.57;;;;;;;;;;5075678;22;20064;-58
2023/04/16 09:22:05;;;;;;;31.05;16.88;;;;;;;;;;5074384;28;20458;-60
2023/04/16 09:24:31;;;;;;;29.23;17.30;;;;;;;;;;5073859;28;20021;-60
2023/04/16 09:26:56;;;;;;;30.58;17.38;;;;;;;;;;5072935;28;20032;-60
2023/04/16 09:29:35;;;;;;;34.42;19.05;;;;;;;;;;5072513;28;20170;-60
2023/04/16 09:32:04;;;;;;;18.90;10.93;;;;;;;;;;5073171;28;20028;-60
2023/04/16 09:34:34;;;;;;;21.15;12.52;;;;;;;;;;5074009;28;20025;-60
2023/04/16 09:37:13;;;;;;;20.88;10.40;;;;;;;;;;5073978;28;20093;-60
2023/04/16 09:39:38;;;;;;;22.90;12.57;;;;;;;;;;5074125;28;20032;-60
2023/04/16 09:42:04;;;;;;;25.92;15.23;;;;;;;;;;5073912;28;20175;-60
2023/04/16 09:44:37;;;;;;;25.90;14.75;;;;;;;;;;5073897;28;20021;-60
2023/04/16 09:47:06;;;;;;;20.17;13.70;;;;;;;;;;5072680;28;20379;-61
2023/04/16 09:49:33;;;;;;;23.30;13.55;;;;;;;;;;5073552;28;20062;-61
2023/04/16 09:51:58;;;;;;;21.88;13.60;;;;;;;;;;5055603;28;20102;-60
2023/04/16 09:54:24;;;;;;;19.17;11.88;;;;;;;;;;5073501;28;20466;-60
2023/04/16 09:56:50;;;;;;;19.52;12.27;;;;;;;;;;5073807;28;20028;-61
2023/04/16 09:59:16;;;;;;;18.58;12.15;;;;;;;;;;5075434;28;20029;-61
2023/04/16 10:01:41;;;;;;;20.67;12.13;;;;;;;;;;5077900;28;20078;-60
2023/04/16 10:04:13;;;;;;;17.52;12.77;;;;;;;;;;5078393;28;20020;-61
2023/04/16 10:06:38;;;;;;;21.35;12.65;;;;;;;;;;5077810;28;20024;-61
2023/04/16 10:09:06;;;;;;;15.65;11.15;;;;;;;;;;5077762;28;20070;-61
2023/04/16 10:11:31;;;;;;;14.52;10.32;;;;;;;;;;5077434;28;20044;-61
2023/04/16 10:13:56;;;;;;;11.93;8.75;;;;;;;;;;5077626;28;20123;-60
2023/04/16 10:16:22;;;;;;;13.52;9.18;;;;;;;;;;5087730;23;20052;-54
2023/04/16 10:19:09;;;;;;;14.15;8.98;;;;;;;;;;5107027;22;20557;-54
2023/04/16 10:21:35;;;;;;;14.70;9.85;;;;;;;;;;5075355;22;20728;-54
2023/04/16 10:24:01;;;;;;;15.02;8.93;;;;;;;;;;5065918;22;20057;-53
2023/04/16 10:26:28;;;;;;;11.80;8.40;;;;;;;;;;5051214;23;20045;-54
2023/04/16 10:28:54;;;;;;;16.00;9.23;;;;;;;;;;5047301;23;20072;-54
2023/04/16 10:31:19;;;;;;;14.88;9.60;;;;;;;;;;5059904;22;20045;-60
2023/04/16 10:33:45;;;;;;;12.10;8.95;;;;;;;;;;5037041;28;20060;-61
2023/04/16 10:36:11;;;;;;;13.07;9.20;;;;;;;;;;5037000;28;20463;-60
2023/04/16 10:38:38;;;;;;;12.35;8.70;;;;;;;;;;5037180;28;20113;-60
2023/04/16 10:41:03;;;;;;;12.05;9.05;;;;;;;;;;5037450;28;20059;-60
2023/04/16 10:43:29;;;;;;;10.98;8.65;;;;;;;;;;5037136;28;20021;-60
2023/04/16 10:45:55;;;;;;;12.95;8.60;;;;;;;;;;5036849;28;20045;-60
2023/04/16 10:48:20;;;;;;;13.68;9.05;;;;;;;;;;5037070;28;20037;-60
2023/04/16 10:50:56;;;;;;;43.65;29.48;;;;;;;;;;5036739;28;20029;-61
2023/04/16 10:53:22;;;;;;;36.83;23.90;;;;;;;;;;5036825;28;20030;-60
2023/04/16 10:56:03;;;;;;;10.60;7.68;;;;;;;;;;5037218;28;20039;-61
2023/04/16 10:58:34;;;;;;;10.27;7.93;;;;;;;;;;5036794;28;20386;-60
2023/04/16 11:01:00;;;;;;;;;;;;;;;;;;5037016;28;20127;-60
2023/04/16 11:03:28;;;;;;;15.50;10.73;;;;;;;;;;5018722;28;20311;-61
2023/04/16 11:06:08;;;;;;;9.35;7.32;;;;;;;;;;5036448;28;20033;-60
2023/04/16 11:08:33;;;;;;;7.80;6.90;;;;;;;;;;5036417;28;20026;-60
2023/04/16 11:10:59;;;;;;;7.78;6.88;;;;;;;;;;5035980;28;20431;-60
2023/04/16 11:13:25;;;;;;;7.72;6.55;;;;;;;;;;5036582;28;20091;-60
2023/04/16 11:15:50;;;;;;;7.80;6.50;;;;;;;;;;5036792;28;20037;-60
2023/04/16 11:18:18;;;;;;;6.88;5.93;;;;;;;;;;5036147;28;20115;-60
2023/04/16 11:20:43;;;;;;;7.70;6.45;;;;;;;;;;5036433;28;20030;-60
2023/04/16 11:23:11;;;;;;;7.78;6.80;;;;;;;;;;5036696;28;20029;-61
2023/04/16 11:25:36;;;;;;;8.93;7.20;;;;;;;;;;5036372;28;20025;-60
2023/04/16 11:28:01;;;;;;;13.93;6.72;;;;;;;;;;5036326;28;20025;-60
2023/04/16 11:30:32;;;;;;;8.32;6.30;;;;;;;;;;5036367;28;20061;-60
2023/04/16 11:32:57;;;;;;;8.77;7.28;;;;;;;;;;5036012;28;20033;-60
2023/04/16 11:35:22;;;;;;;8.82;6.25;;;;;;;;;;5035897;28;20387;-61
2023/04/16 11:37:48;;;;;;;8.60;6.40;;;;;;;;;;5035878;28;20459;-60
2023/04/16 11:40:13;;;;;;;8.15;6.40;;;;;;;;;;5035970;28;20026;-61
2023/04/16 11:42:39;;;;;;;8.57;6.45;;;;;;;;;;5036352;28;20110;-60
2023/04/16 11:45:05;;;;;;;7.60;6.47;;;;;;;;;;5035761;28;20025;-61
2023/04/16 11:47:31;;;;;;;8.50;6.30;;;;;;;;;;5035962;28;20025;-60
2023/04/16 11:49:56;;;;;;;8.93;6.28;;;;;;;;;;5035637;28;20502;-60
2023/04/16 11:52:26;;;;;;;6.05;5.45;;;;;;;;;;5018241;28;20029;-60
2023/04/16 11:54:52;;;;;;;7.20;5.50;;;;;;;;;;5035847;28;20451;-60
2023/04/16 11:57:27;;;;;;;8.95;5.93;;;;;;;;;;5035783;28;20048;-60
2023/04/16 11:59:53;;;;;;;8.52;6.50;;;;;;;;;;5035406;28;20099;-61
2023/04/16 12:02:33;;;;;;;8.07;6.65;;;;;;;;;;5035709;28;20467;-60
2023/04/16 12:04:58;;;;;;;8.93;5.63;;;;;;;;;;5035675;28;20036;-60
2023/04/16 12:07:23;;;;;;;6.43;5.60;;;;;;;;;;5017562;28;20021;-60
2023/04/16 12:09:49;;;;;;;6.85;5.78;;;;;;;;;;5035298;28;20064;-60
2023/04/16 12:12:25;;;;;;;6.90;5.43;;;;;;;;;;5035530;28;20041;-60
2023/04/16 12:14:50;;;;;;;6.47;5.63;;;;;;;;;;5035731;28;20470;-60
2023/04/16 12:17:17;;;;;;;6.10;5.50;;;;;;;;;;5035419;28;20029;-60
2023/04/16 12:19:50;;;;;;;5.22;4.70;;;;;;;;;;5035558;28;20033;-60
2023/04/16 12:22:15;;;;;;;6.32;5.45;;;;;;;;;;5035041;28;20033;-60
2023/04/16 12:24:41;;;;;;;6.43;5.38;;;;;;;;;;5034969;28;20083;-60
2023/04/16 12:27:07;;;;;;;6.40;5.22;;;;;;;;;;5035465;28;20053;-60
2023/04/16 12:29:33;;;;;;;7.88;5.30;;;;;;;;;;5034867;28;20463;-60
2023/04/16 12:31:58;;;;;;;6.88;5.18;;;;;;;;;;5034657;28;20167;-60
2023/04/16 12:34:24;;;;;;;8.52;6.05;;;;;;;;;;5035011;28;20455;-60
2023/04/16 12:37:04;;;;;;;6.80;5.53;;;;;;;;;;5035058;28;20052;-60
2023/04/16 12:39:29;;;;;;;9.35;5.57;;;;;;;;;;5034597;28;20041;-60
2023/04/16 12:41:55;;;;;;;6.15;5.05;;;;;;;;;;5034913;28;20025;-60
2023/04/16 12:44:21;;;;;;;6.13;5.28;;;;;;;;;;5034645;28;20053;-61
2023/04/16 12:46:46;;;;;;;8.95;5.75;;;;;;;;;;5034543;28;20023;-60
2023/04/16 12:49:11;;;;;;;6.72;5.20;;;;;;;;;;5034814;28;20051;-61
2023/04/16 12:51:37;;;;;;;6.22;5.53;;;;;;;;;;5035069;28;20021;-60
2023/04/16 12:54:03;;;;;;;6.00;5.40;;;;;;;;;;5034700;28;20425;-60
2023/04/16 12:56:29;;;;;;;6.05;5.45;;;;;;;;;;5034698;28;20048;-61
2023/04/16 12:58:55;;;;;;;6.93;4.95;;;;;;;;;;5034845;28;20026;-61
2023/04/16 13:01:20;;;;;;;4.35;3.95;;;;;;;;;;5034876;28;20056;-60
2023/04/16 13:03:46;;;;;;;5.07;4.60;;;;;;;;;;5034302;28;20034;-61
2023/04/16 13:06:12;;;;;;;5.75;5.25;;;;;;;;;;5034495;28;20064;-61
2023/04/16 13:08:39;;;;;;;5.45;4.90;;;;;;;;;;5034476;28;20014;-60
2023/04/16 13:11:05;;;;;;;5.18;4.75;;;;;;;;;;5034418;28;20033;-60
2023/04/16 13:13:30;;;;;;;5.85;4.88;;;;;;;;;;5034109;28;20411;-60
2023/04/16 13:15:56;;;;;;;5.75;5.20;;;;;;;;;;5034375;28;20459;-60
2023/04/16 13:18:22;;;;;;;5.32;4.82;;;;;;;;;;5034241;28;20033;-60
2023/04/16 13:20:47;;;;;;;5.30;4.65;;;;;;;;;;5033960;28;20529;-60
2023/04/16 13:23:12;;;;;;;5.18;4.75;;;;;;;;;;5033899;28;20022;-60
2023/04/16 13:25:38;;;;;;;5.05;4.53;;;;;;;;;;5034421;28;20482;-60
2023/04/16 13:28:03;;;;;;;5.13;4.72;;;;;;;;;;5033915;28;20434;-60
2023/04/16 13:30:28;;;;;;;5.10;4.70;;;;;;;;;;5033931;28;20068;-60
2023/04/16 13:32:54;;;;;;;5.45;4.82;;;;;;;;;;5033567;28;20033;-60
2023/04/16 13:35:20;;;;;;;5.40;4.95;;;;;;;;;;5033779;28;20378;-60
2023/04/16 13:37:45;;;;;;;5.32;4.90;;;;;;;;;;5034300;28;20029;-61
2023/04/16 13:40:10;;;;;;;5.35;4.80;;;;;;;;;;5033702;28;20025;-61
2023/04/16 13:42:36;;;;;;;5.13;4.72;;;;;;;;;;5033741;28;20030;-60
2023/04/16 13:45:01;;;;;;;5.05;4.57;;;;;;;;;;5034250;28;20025;-53
2023/04/16 13:47:29;;;;;;;5.03;4.53;;;;;;;;;;5033643;28;20032;-53
2023/04/16 13:49:54;;;;;;;4.85;4.45;;;;;;;;;;5033882;28;20486;-54
2023/04/16 13:52:20;;;;;;;11.63;6.03;;;;;;;;;;5033553;28;20025;-53
2023/04/16 13:54:45;;;;;;;4.75;4.35;;;;;;;;;;5031580;28;20029;-53
2023/04/16 13:57:18;;;;;;;5.57;5.05;;;;;;;;;;5033205;28;20029;-53
2023/04/16 13:59:44;;;;;;;6.50;5.75;;;;;;;;;;5032742;28;20383;-53
2023/04/16 14:02:10;;;;;;;5.47;4.97;;;;;;;;;;5013931;28;20026;-53
2023/04/16 14:04:35;;;;;;;4.75;4.35;;;;;;;;;;5031561;28;20364;-53
2023/04/16 14:07:00;;;;;;;5.50;4.45;;;;;;;;;;5030989;28;20140;-52
2023/04/16 14:09:26;;;;;;;6.63;5.53;;;;;;;;;;5032052;28;20076;-52
2023/04/16 14:11:52;;;;;;;5.32;4.82;;;;;;;;;;5032337;28;20040;-52
2023/04/16 14:14:18;;;;;;;5.40;4.90;;;;;;;;;;5031549;28;20029;-52
2023/04/16 14:16:43;;;;;;;8.57;5.53;;;;;;;;;;5032112;28;20112;-52
2023/04/16 14:19:09;;;;;;;5.68;5.15;;;;;;;;;;5030268;28;20425;-52
2023/04/16 14:21:34;;;;;;;11.18;5.50;;;;;;;;;;5030605;28;20013;-52